createdAt,value
2022-08-01T00:00:05.644Z,94.20
2022-08-01T00:01:05.635Z,94.09
2022-08-01T00:02:05.955Z,94.09
2022-08-01T00:03:05.615Z,93.59
2022-08-01T00:04:05.636Z,94.20
2022-08-01T00:05:05.610Z,94.70
2022-08-01T00:06:05.596Z,94.49
2022-08-01T00:07:05.589Z,93.99
2022-08-01T00:08:05.589Z,94.29
2022-08-01T00:09:05.601Z,93.99
2022-08-01T00:10:05.567Z,93.99
2022-08-01T00:11:05.556Z,93.59
2022-08-01T00:12:05.543Z,94.13
2022-08-01T00:13:05.541Z,93.49
2022-08-01T00:14:05.565Z,93.79
2022-08-01T00:15:05.525Z,93.49
2022-08-01T00:16:05.520Z,94.13
2022-08-01T00:17:07.621Z,94.44
2022-08-01T00:18:06.516Z,94.04
2022-08-01T00:19:05.497Z,94.90
2022-08-01T00:20:05.512Z,95.54
2022-08-01T00:21:05.484Z,95.54
2022-08-01T00:22:05.867Z,94.84
2022-08-01T00:23:05.467Z,95.04
2022-08-01T00:24:05.461Z,94.79
2022-08-01T00:25:05.478Z,95.79
2022-08-01T00:26:05.452Z,95.99
2022-08-01T00:27:05.431Z,95.99
2022-08-01T00:28:05.425Z,96.59
2022-08-01T00:29:05.427Z,96.59
2022-08-01T00:30:13.415Z,96.74
2022-08-01T00:31:06.397Z,97.44
2022-08-01T00:32:05.707Z,97.34
2022-08-01T00:33:05.402Z,97.70
2022-08-01T00:34:05.393Z,97.44
2022-08-01T00:35:05.404Z,97.20
2022-08-01T00:36:05.366Z,97.44
2022-08-01T00:37:05.351Z,97.34
2022-08-01T00:38:05.333Z,97.75
2022-08-01T00:39:05.329Z,97.44
2022-08-01T00:40:05.378Z,97.50
2022-08-01T00:41:05.317Z,98.00
2022-08-01T00:42:05.674Z,97.64
2022-08-01T00:43:05.304Z,98.00
2022-08-01T00:44:05.301Z,97.40
2022-08-01T00:45:05.309Z,97.20
2022-08-01T00:46:05.278Z,97.60
2022-08-01T00:47:05.279Z,97.80
2022-08-01T00:48:05.260Z,97.20
2022-08-01T00:49:05.310Z,97.14
2022-08-01T00:50:06.272Z,97.40
2022-08-01T00:51:05.240Z,97.50
2022-08-01T00:52:05.555Z,97.50
2022-08-01T00:53:05.221Z,97.20
2022-08-01T00:54:05.217Z,97.20
2022-08-01T00:55:05.232Z,97.24
2022-08-01T00:56:05.200Z,97.40
2022-08-01T00:57:05.201Z,97.24
2022-08-01T00:58:06.670Z,97.30
2022-08-01T00:59:05.175Z,97.50
2022-08-01T01:00:05.200Z,97.40
2022-08-01T01:01:05.239Z,97.34
2022-08-01T01:02:06.016Z,97.40
2022-08-01T01:03:06.144Z,97.40
2022-08-01T01:04:08.590Z,97.30
2022-08-01T01:05:05.155Z,97.09
2022-08-01T01:06:05.121Z,97.40
2022-08-01T01:07:05.117Z,97.20
2022-08-01T01:08:05.110Z,97.30
2022-08-01T01:09:05.110Z,97.50
2022-08-01T01:10:05.122Z,97.50
2022-08-01T01:11:05.097Z,97.20
2022-08-01T01:12:05.377Z,97.60
2022-08-01T01:13:05.074Z,97.50
2022-08-01T01:14:05.063Z,97.04
2022-08-01T01:15:05.075Z,97.60
2022-08-01T01:16:05.052Z,97.50
2022-08-01T01:17:05.044Z,97.50
2022-08-01T01:18:05.033Z,97.70
2022-08-01T01:19:05.028Z,97.09
2022-08-01T01:20:05.043Z,97.40
2022-08-01T01:21:05.006Z,97.40
2022-08-01T01:22:05.185Z,97.60
2022-08-01T01:23:04.994Z,97.60
2022-08-01T01:24:04.983Z,97.90
2022-08-01T01:25:05.003Z,97.80
2022-08-01T01:26:04.980Z,97.50
2022-08-01T01:27:04.969Z,97.60
2022-08-01T01:28:04.958Z,97.20
2022-08-01T01:29:04.951Z,97.20
2022-08-01T01:30:04.990Z,97.09
2022-08-01T01:31:04.943Z,97.40
2022-08-01T01:32:05.136Z,97.09
2022-08-01T01:33:04.931Z,98.60
2022-08-01T01:34:04.909Z,97.60
2022-08-01T01:35:04.930Z,97.70
2022-08-01T01:36:11.537Z,97.40
2022-08-01T01:37:05.886Z,97.70
2022-08-01T01:38:04.880Z,97.70
2022-08-01T01:39:04.869Z,98.10
2022-08-01T01:40:04.920Z,97.50
2022-08-01T01:41:04.854Z,98.40
2022-08-01T01:42:05.170Z,97.80
2022-08-01T01:43:04.854Z,97.90
2022-08-01T01:44:04.835Z,97.80
2022-08-01T01:45:04.870Z,97.90
2022-08-01T01:46:04.826Z,98.30
2022-08-01T01:47:04.824Z,97.70
2022-08-01T01:48:04.816Z,97.30
2022-08-01T01:49:04.893Z,97.60
2022-08-01T01:50:04.836Z,97.35
2022-08-01T01:51:04.784Z,97.60
2022-08-01T01:52:04.914Z,97.50
2022-08-01T01:53:05.757Z,97.40
2022-08-01T01:54:05.759Z,97.30
2022-08-01T01:55:04.750Z,97.60
2022-08-01T01:56:04.768Z,97.30
2022-08-01T01:57:05.741Z,97.40
2022-08-01T01:58:04.729Z,97.30
2022-08-01T01:59:04.727Z,97.40
2022-08-01T02:00:04.717Z,97.30
2022-08-01T02:01:04.730Z,97.30
2022-08-01T02:02:06.761Z,97.45
2022-08-01T02:03:04.743Z,97.66
2022-08-01T02:04:04.709Z,97.60
2022-08-01T02:05:04.678Z,97.45
2022-08-01T02:06:04.710Z,97.40
2022-08-01T02:07:04.662Z,97.50
2022-08-01T02:08:04.650Z,97.50
2022-08-01T02:09:04.653Z,97.60
2022-08-01T02:10:04.643Z,97.70
2022-08-01T02:11:04.660Z,97.40
2022-08-01T02:12:07.777Z,97.60
2022-08-01T02:13:04.627Z,97.40
2022-08-01T02:14:04.662Z,97.50
2022-08-01T02:15:04.601Z,98.30
2022-08-01T02:16:04.626Z,97.60
2022-08-01T02:17:04.590Z,97.30
2022-08-01T02:18:04.586Z,97.60
2022-08-01T02:19:04.563Z,97.90
2022-08-01T02:20:05.572Z,98.40
2022-08-01T02:21:04.578Z,98.55
2022-08-01T02:22:04.810Z,98.40
2022-08-01T02:23:04.541Z,98.20
2022-08-01T02:24:06.145Z,97.95
2022-08-01T02:25:05.528Z,98.65
2022-08-01T02:26:10.430Z,98.55
2022-08-01T02:27:05.506Z,98.20
2022-08-01T02:28:04.501Z,98.50
2022-08-01T02:29:04.499Z,98.35
2022-08-01T02:30:04.485Z,98.05
2022-08-01T02:31:04.502Z,98.40
2022-08-01T02:32:04.812Z,98.15
2022-08-01T02:33:04.464Z,98.35
2022-08-01T02:34:04.448Z,98.40
2022-08-01T02:35:04.459Z,98.60
2022-08-01T02:36:32.031Z,98.65
2022-08-01T02:37:05.429Z,98.85
2022-08-01T02:38:04.424Z,98.71
2022-08-01T02:39:04.425Z,98.75
2022-08-01T02:40:04.403Z,98.45
2022-08-01T02:41:04.434Z,98.45
2022-08-01T02:42:04.663Z,98.05
2022-08-01T02:43:04.386Z,97.85
2022-08-01T02:44:04.433Z,99.05
2022-08-01T02:45:04.370Z,98.55
2022-08-01T02:46:04.389Z,98.85
2022-08-01T02:47:04.347Z,98.75
2022-08-01T02:48:04.340Z,98.55
2022-08-01T02:49:04.384Z,98.85
2022-08-01T02:50:04.339Z,98.95
2022-08-01T02:51:04.985Z,98.75
2022-08-01T02:52:04.695Z,98.65
2022-08-01T02:53:04.332Z,98.15
2022-08-01T02:54:04.293Z,98.65
2022-08-01T02:55:04.290Z,98.75
2022-08-01T02:56:04.305Z,98.75
2022-08-01T02:57:04.270Z,98.35
2022-08-01T02:58:04.304Z,98.00
2022-08-01T02:59:04.250Z,98.20
2022-08-01T03:00:04.249Z,97.64
2022-08-01T03:01:04.306Z,97.70
2022-08-01T03:02:04.672Z,97.64
2022-08-01T03:03:04.228Z,97.75
2022-08-01T03:04:04.215Z,97.64
2022-08-01T03:05:04.208Z,98.25
2022-08-01T03:06:04.228Z,98.45
2022-08-01T03:07:04.197Z,98.45
2022-08-01T03:08:04.193Z,98.35
2022-08-01T03:09:05.177Z,97.90
2022-08-01T03:10:04.174Z,98.45
2022-08-01T03:11:04.193Z,97.60
2022-08-01T03:12:04.528Z,97.64
2022-08-01T03:13:04.148Z,97.34
2022-08-01T03:14:04.138Z,97.85
2022-08-01T03:15:04.129Z,97.70
2022-08-01T03:16:04.154Z,97.70
2022-08-01T03:17:04.122Z,97.55
2022-08-01T03:18:04.108Z,97.30
2022-08-01T03:19:04.103Z,97.44
2022-08-01T03:20:04.091Z,97.64
2022-08-01T03:21:04.125Z,97.14
2022-08-01T03:22:04.422Z,97.64
2022-08-01T03:23:04.066Z,97.55
2022-08-01T03:24:04.065Z,97.34
2022-08-01T03:25:04.051Z,97.34
2022-08-01T03:26:04.046Z,97.44
2022-08-01T03:27:04.058Z,97.34
2022-08-01T03:28:04.036Z,97.34
2022-08-01T03:29:04.029Z,97.44
2022-08-01T03:30:04.014Z,97.44
2022-08-01T03:31:04.011Z,97.64
2022-08-01T03:32:04.413Z,97.34
2022-08-01T03:33:03.996Z,97.24
2022-08-01T03:34:05.923Z,97.34
2022-08-01T03:35:04.988Z,97.34
2022-08-01T03:36:03.973Z,97.44
2022-08-01T03:37:03.998Z,97.34
2022-08-01T03:38:18.451Z,97.24
2022-08-01T03:39:05.955Z,97.44
2022-08-01T03:40:03.945Z,97.04
2022-08-01T03:41:03.938Z,97.64
2022-08-01T03:42:03.949Z,97.34
2022-08-01T03:43:03.919Z,97.04
2022-08-01T03:44:03.906Z,97.44
2022-08-01T03:45:03.902Z,97.64
2022-08-01T03:46:03.895Z,97.44
2022-08-01T03:47:03.909Z,97.14
2022-08-01T03:48:03.877Z,97.24
2022-08-01T03:49:03.940Z,97.34
2022-08-01T03:50:03.861Z,97.44
2022-08-01T03:51:03.853Z,97.44
2022-08-01T03:52:04.131Z,97.14
2022-08-01T03:53:03.850Z,97.34
2022-08-01T03:54:03.823Z,97.44
2022-08-01T03:55:03.819Z,97.55
2022-08-01T03:56:03.812Z,97.24
2022-08-01T03:57:03.830Z,97.85
2022-08-01T03:58:08.238Z,97.24
2022-08-01T03:59:05.790Z,97.24
2022-08-01T04:00:03.792Z,97.34
2022-08-01T04:01:03.834Z,97.34
2022-08-01T04:02:04.112Z,97.44
2022-08-01T04:03:03.757Z,97.55
2022-08-01T04:04:03.748Z,97.24
2022-08-01T04:05:03.738Z,97.34
2022-08-01T04:06:03.733Z,97.24
2022-08-01T04:07:03.749Z,97.55
2022-08-01T04:08:03.727Z,97.24
2022-08-01T04:09:03.711Z,97.44
2022-08-01T04:10:03.705Z,97.55
2022-08-01T04:11:03.691Z,97.70
2022-08-01T04:12:11.966Z,97.34
2022-08-01T04:13:04.679Z,97.70
2022-08-01T04:14:03.679Z,97.24
2022-08-01T04:15:04.668Z,97.24
2022-08-01T04:16:03.660Z,97.75
2022-08-01T04:17:03.681Z,97.64
2022-08-01T04:18:03.639Z,97.24
2022-08-01T04:19:03.644Z,97.34
2022-08-01T04:20:03.626Z,97.34
2022-08-01T04:21:03.618Z,97.30
2022-08-01T04:22:03.940Z,97.64
2022-08-01T04:23:03.604Z,97.85
2022-08-01T04:24:03.595Z,97.75
2022-08-01T04:25:03.589Z,97.34
2022-08-01T04:26:03.575Z,97.64
2022-08-01T04:27:03.605Z,97.50
2022-08-01T04:28:03.563Z,97.95
2022-08-01T04:29:03.560Z,97.40
2022-08-01T04:30:03.548Z,97.55
2022-08-01T04:31:03.535Z,97.60
2022-08-01T04:32:03.986Z,97.85
2022-08-01T04:33:03.550Z,97.80
2022-08-01T04:34:03.531Z,97.95
2022-08-01T04:35:03.516Z,97.85
2022-08-01T04:36:05.123Z,97.85
2022-08-01T04:37:04.531Z,98.05
2022-08-01T04:38:03.489Z,97.95
2022-08-01T04:39:03.478Z,98.25
2022-08-01T04:40:03.477Z,98.85
2022-08-01T04:41:08.899Z,98.75
2022-08-01T04:42:04.783Z,98.75
2022-08-01T04:43:03.486Z,98.75
2022-08-01T04:44:03.442Z,98.55
2022-08-01T04:45:03.443Z,98.75
2022-08-01T04:46:03.469Z,98.45
2022-08-01T04:47:03.451Z,98.75
2022-08-01T04:48:03.443Z,98.95
2022-08-01T04:49:03.447Z,98.65
2022-08-01T04:50:03.425Z,98.65
2022-08-01T04:51:03.429Z,98.65
2022-08-01T04:52:03.707Z,98.75
2022-08-01T04:53:03.399Z,98.55
2022-08-01T04:54:03.357Z,98.65
2022-08-01T04:55:03.373Z,99.05
2022-08-01T04:56:03.348Z,98.65
2022-08-01T04:57:03.339Z,98.60
2022-08-01T04:58:03.359Z,98.55
2022-08-01T04:59:03.323Z,98.91
2022-08-01T05:00:03.318Z,98.85
2022-08-01T05:01:03.338Z,98.40
2022-08-01T05:02:03.434Z,98.71
2022-08-01T05:03:03.314Z,98.40
2022-08-01T05:04:03.284Z,98.20
2022-08-01T05:05:03.272Z,98.10
2022-08-01T05:06:04.271Z,98.40
2022-08-01T05:07:03.265Z,97.50
2022-08-01T05:08:03.282Z,98.40
2022-08-01T05:09:03.245Z,97.60
2022-08-01T05:10:03.249Z,97.60
2022-08-01T05:11:03.228Z,97.40
2022-08-01T05:12:03.320Z,97.60
2022-08-01T05:13:03.247Z,97.90
2022-08-01T05:14:03.221Z,97.80
2022-08-01T05:15:03.202Z,97.90
2022-08-01T05:16:03.198Z,98.40
2022-08-01T05:17:03.189Z,98.10
2022-08-01T05:18:03.214Z,98.40
2022-08-01T05:19:03.184Z,98.60
2022-08-01T05:20:03.166Z,98.50
2022-08-01T05:21:03.158Z,98.16
2022-08-01T05:22:03.276Z,98.36
2022-08-01T05:23:03.168Z,98.16
2022-08-01T05:24:03.148Z,98.05
2022-08-01T05:25:03.125Z,98.56
2022-08-01T05:26:03.126Z,97.96
2022-08-01T05:27:03.475Z,98.36
2022-08-01T05:28:03.125Z,97.80
2022-08-01T05:29:03.096Z,98.46
2022-08-01T05:30:03.083Z,98.66
2022-08-01T05:31:03.075Z,98.66
2022-08-01T05:32:03.369Z,98.46
2022-08-01T05:33:03.770Z,98.66
2022-08-01T05:34:03.058Z,98.56
2022-08-01T05:35:03.048Z,98.46
2022-08-01T05:36:03.033Z,98.86
2022-08-01T05:37:03.277Z,98.91
2022-08-01T05:38:03.054Z,98.50
2022-08-01T05:39:03.030Z,98.60
2022-08-01T05:40:03.023Z,98.60
2022-08-01T05:41:02.999Z,99.21
2022-08-01T05:42:03.363Z,99.41
2022-08-01T05:43:03.025Z,99.01
2022-08-01T05:44:02.986Z,99.31
2022-08-01T05:45:02.961Z,99.21
2022-08-01T05:46:02.965Z,99.16
2022-08-01T05:47:02.950Z,99.51
2022-08-01T05:48:02.974Z,98.71
2022-08-01T05:49:03.015Z,98.91
2022-08-01T05:50:02.937Z,99.41
2022-08-01T05:51:02.919Z,98.80
2022-08-01T05:52:03.633Z,99.15
2022-08-01T05:53:02.934Z,99.11
2022-08-01T05:54:02.895Z,99.21
2022-08-01T05:55:02.888Z,99.11
2022-08-01T05:56:02.895Z,98.60
2022-08-01T05:57:02.914Z,99.21
2022-08-01T05:58:02.904Z,98.91
2022-08-01T05:59:02.861Z,98.40
2022-08-01T06:00:03.862Z,99.21
2022-08-01T06:01:02.855Z,99.11
2022-08-01T06:02:02.954Z,99.41
2022-08-01T06:03:02.855Z,98.46
2022-08-01T06:04:02.817Z,98.86
2022-08-01T06:05:02.812Z,98.66
2022-08-01T06:06:02.802Z,98.56
2022-08-01T06:07:02.803Z,98.41
2022-08-01T06:08:02.820Z,98.51
2022-08-01T06:09:02.780Z,97.50
2022-08-01T06:10:02.783Z,97.50
2022-08-01T06:11:02.762Z,97.56
2022-08-01T06:12:03.059Z,97.41
2022-08-01T06:13:02.796Z,97.16
2022-08-01T06:14:02.743Z,97.16
2022-08-01T06:15:02.731Z,97.16
2022-08-01T06:16:02.730Z,97.16
2022-08-01T06:17:02.720Z,97.06
2022-08-01T06:18:02.740Z,97.16
2022-08-01T06:19:02.705Z,96.36
2022-08-01T06:20:02.694Z,96.56
2022-08-01T06:21:02.693Z,96.21
2022-08-01T06:22:02.916Z,95.71
2022-08-01T06:23:02.711Z,96.11
2022-08-01T06:24:03.687Z,96.31
2022-08-01T06:25:02.661Z,96.41
2022-08-01T06:26:02.662Z,96.41
2022-08-01T06:27:02.870Z,97.02
2022-08-01T06:28:03.631Z,96.06
2022-08-01T06:29:02.651Z,95.31
2022-08-01T06:30:02.634Z,95.51
2022-08-01T06:31:02.604Z,95.10
2022-08-01T06:32:02.742Z,94.31
2022-08-01T06:33:02.597Z,94.96
2022-08-01T06:34:02.741Z,94.86
2022-08-01T06:35:02.668Z,94.26
2022-08-01T06:36:02.568Z,94.26
2022-08-01T06:37:05.889Z,94.36
2022-08-01T06:38:02.548Z,94.31
2022-08-01T06:39:02.576Z,94.31
2022-08-01T06:40:02.544Z,94.71
2022-08-01T06:41:02.529Z,94.01
2022-08-01T06:42:02.679Z,93.91
2022-08-01T06:43:02.511Z,94.42
2022-08-01T06:44:02.536Z,94.76
2022-08-01T06:45:02.505Z,94.42
2022-08-01T06:46:02.493Z,94.12
2022-08-01T06:47:03.480Z,94.01
2022-08-01T06:48:02.469Z,93.91
2022-08-01T06:49:02.543Z,93.31
2022-08-01T06:50:02.461Z,93.91
2022-08-01T06:51:02.456Z,93.62
2022-08-01T06:52:02.527Z,93.62
2022-08-01T06:53:02.434Z,94.06
2022-08-01T06:54:02.457Z,94.21
2022-08-01T06:55:02.422Z,94.51
2022-08-01T06:56:02.414Z,94.31
2022-08-01T06:57:02.409Z,93.77
2022-08-01T06:58:02.397Z,94.12
2022-08-01T06:59:02.422Z,94.21
2022-08-01T07:00:02.369Z,93.67
2022-08-01T07:01:03.474Z,94.27
2022-08-01T07:02:02.443Z,94.21
2022-08-01T07:03:02.357Z,94.27
2022-08-01T07:04:02.381Z,94.57
2022-08-01T07:05:02.362Z,93.57
2022-08-01T07:06:02.337Z,93.67
2022-08-01T07:07:02.329Z,94.01
2022-08-01T07:08:02.322Z,93.96
2022-08-01T07:09:07.407Z,93.66
2022-08-01T07:10:04.367Z,93.40
2022-08-01T07:11:02.293Z,93.40
2022-08-01T07:12:02.448Z,94.31
2022-08-01T07:13:02.277Z,94.36
2022-08-01T07:14:02.306Z,92.70
2022-08-01T07:15:02.266Z,93.70
2022-08-01T07:16:02.264Z,94.71
2022-08-01T07:17:02.249Z,94.56
2022-08-01T07:18:02.240Z,94.26
2022-08-01T07:19:02.261Z,93.86
2022-08-01T07:20:02.229Z,94.26
2022-08-01T07:21:02.245Z,94.16
2022-08-01T07:22:02.213Z,92.60
2022-08-01T07:23:36.566Z,93.80
2022-08-01T07:24:02.226Z,93.40
2022-08-01T07:25:03.195Z,93.60
2022-08-01T07:26:02.180Z,92.55
2022-08-01T07:27:21.248Z,92.80
2022-08-01T07:28:03.186Z,93.40
2022-08-01T07:29:02.195Z,93.55
2022-08-01T07:30:02.153Z,92.66
2022-08-01T07:31:02.142Z,92.66
2022-08-01T07:32:02.193Z,91.96
2022-08-01T07:33:02.175Z,91.05
2022-08-01T07:34:02.117Z,90.39
2022-08-01T07:35:02.151Z,91.50
2022-08-01T07:36:02.099Z,91.89
2022-08-01T07:37:02.090Z,92.00
2022-08-01T07:38:02.080Z,91.89
2022-08-01T07:39:03.802Z,91.50
2022-08-01T07:40:02.361Z,91.65
2022-08-01T07:41:02.056Z,90.45
2022-08-01T07:42:07.106Z,91.61
2022-08-01T07:43:03.040Z,91.81
2022-08-01T07:44:04.811Z,91.01
2022-08-01T07:45:03.054Z,90.61
2022-08-01T07:46:02.017Z,91.01
2022-08-01T07:47:02.012Z,89.70
2022-08-01T07:48:02.013Z,90.77
2022-08-01T07:49:02.034Z,91.92
2022-08-01T07:50:02.047Z,90.88
2022-08-01T07:51:02.048Z,89.87
2022-08-01T07:52:03.275Z,89.23
2022-08-01T07:53:01.968Z,86.73
2022-08-01T07:54:01.961Z,86.11
2022-08-01T07:55:01.977Z,86.32
2022-08-01T07:56:01.944Z,88.46
2022-08-01T07:57:01.936Z,88.66
2022-08-01T07:58:01.932Z,88.66
2022-08-01T07:59:01.924Z,90.78
2022-08-01T08:00:01.942Z,87.98
2022-08-01T08:01:01.907Z,86.73
2022-08-01T08:02:02.107Z,87.69
2022-08-01T08:03:01.892Z,86.69
2022-08-01T08:04:02.206Z,86.29
2022-08-01T08:05:02.091Z,86.05
2022-08-01T08:06:01.886Z,86.95
2022-08-01T08:07:01.864Z,85.21
2022-08-01T08:08:01.858Z,83.31
2022-08-01T08:09:01.850Z,84.09
2022-08-01T08:10:01.871Z,84.59
2022-08-01T08:11:01.845Z,84.03
2022-08-01T08:12:01.825Z,85.43
2022-08-01T08:13:02.004Z,86.23
2022-08-01T08:14:01.981Z,84.63
2022-08-01T08:15:01.931Z,85.39
2022-08-01T08:16:01.804Z,85.35
2022-08-01T08:17:02.184Z,84.21
2022-08-01T08:18:01.795Z,85.27
2022-08-01T08:19:01.864Z,81.24
2022-08-01T08:20:01.792Z,81.27
2022-08-01T08:21:06.307Z,82.95
2022-08-01T08:22:04.034Z,83.29
2022-08-01T08:23:01.754Z,84.03
2022-08-01T08:24:01.732Z,85.23
2022-08-01T08:25:01.792Z,84.11
2022-08-01T08:26:02.905Z,86.57
2022-08-01T08:27:01.721Z,85.59
2022-08-01T08:28:01.718Z,82.33
2022-08-01T08:29:01.724Z,84.23
2022-08-01T08:30:01.711Z,82.77
2022-08-01T08:31:01.725Z,85.53
2022-08-01T08:32:01.681Z,83.39
2022-08-01T08:33:01.677Z,81.45
2022-08-01T08:34:01.656Z,81.56
2022-08-01T08:35:01.937Z,81.15
2022-08-01T08:36:01.644Z,83.45
2022-08-01T08:37:01.640Z,82.41
2022-08-01T08:38:01.628Z,81.05
2022-08-01T08:39:01.725Z,81.56
2022-08-01T08:40:01.645Z,82.05
2022-08-01T08:41:01.611Z,80.95
2022-08-01T08:42:01.613Z,81.25
2022-08-01T08:43:01.589Z,83.05
2022-08-01T08:44:01.592Z,81.29
2022-08-01T08:45:01.613Z,80.99
2022-08-01T08:46:01.573Z,81.89
2022-08-01T08:47:01.573Z,82.95
2022-08-01T08:48:01.556Z,82.95
2022-08-01T08:49:01.760Z,80.35
2022-08-01T08:50:01.564Z,81.71
2022-08-01T08:51:01.520Z,80.71
2022-08-01T08:52:01.525Z,79.02
2022-08-01T08:53:01.508Z,78.92
2022-08-01T08:54:01.516Z,78.92
2022-08-01T08:55:01.535Z,77.28
2022-08-01T08:56:02.497Z,78.92
2022-08-01T08:57:01.490Z,77.88
2022-08-01T08:58:02.253Z,77.28
2022-08-01T08:59:01.480Z,78.84
2022-08-01T09:00:01.490Z,77.11
2022-08-01T09:01:01.474Z,77.57
2022-08-01T09:02:01.471Z,76.47
2022-08-01T09:03:01.483Z,76.14
2022-08-01T09:04:01.455Z,76.34
2022-08-01T09:05:01.486Z,74.62
2022-08-01T09:06:01.412Z,76.45
2022-08-01T09:07:01.416Z,75.35
2022-08-01T09:08:01.407Z,76.18
2022-08-01T09:09:01.388Z,75.52
2022-08-01T09:10:01.418Z,75.02
2022-08-01T09:11:01.393Z,76.06
2022-08-01T09:12:01.366Z,77.62
2022-08-01T09:13:01.368Z,76.78
2022-08-01T09:14:01.356Z,76.15
2022-08-01T09:15:01.374Z,77.21
2022-08-01T09:16:01.341Z,76.27
2022-08-01T09:17:01.348Z,74.77
2022-08-01T09:18:01.329Z,75.31
2022-08-01T09:19:01.387Z,75.27
2022-08-01T09:20:01.308Z,74.41
2022-08-01T09:21:01.329Z,75.05
2022-08-01T09:22:01.295Z,76.98
2022-08-01T09:23:01.290Z,76.38
2022-08-01T09:24:01.283Z,76.92
2022-08-01T09:25:01.298Z,77.12
2022-08-01T09:26:01.297Z,77.25
2022-08-01T09:27:03.393Z,77.25
2022-08-01T09:28:01.252Z,78.16
2022-08-01T09:29:01.282Z,77.82
2022-08-01T09:30:02.283Z,77.98
2022-08-01T09:31:01.263Z,78.64
2022-08-01T09:32:01.249Z,76.65
2022-08-01T09:33:01.217Z,77.28
2022-08-01T09:34:01.208Z,78.74
2022-08-01T09:35:01.333Z,76.21
2022-08-01T09:36:01.620Z,76.27
2022-08-01T09:37:01.191Z,76.17
2022-08-01T09:40:44.013Z,75.54
2022-08-01T09:41:44.013Z,75.34
2022-08-01T09:42:44.027Z,75.21
2022-08-01T09:43:44.017Z,74.75
2022-08-01T09:44:54.851Z,74.75
2022-08-01T09:45:49.054Z,74.85
2022-08-01T09:46:46.111Z,76.18
2022-08-01T09:47:45.137Z,78.78
2022-08-01T09:48:45.103Z,77.61
2022-08-01T09:49:50.076Z,76.65
2022-08-01T09:50:46.108Z,77.25
2022-08-01T09:51:58.794Z,75.11
2022-08-01T09:52:46.066Z,74.95
2022-08-01T09:53:51.317Z,74.88
2022-08-01T09:54:46.062Z,75.48
2022-08-01T09:55:45.096Z,75.15
2022-08-01T09:56:45.039Z,74.88
2022-08-01T09:57:45.034Z,75.55
2022-08-01T09:58:45.030Z,74.35
2022-08-01T09:59:58.325Z,74.15
2022-08-01T10:00:47.103Z,75.11
2022-08-01T10:01:45.005Z,74.51
2022-08-01T10:02:45.020Z,74.91
2022-08-01T10:03:45.058Z,74.55
2022-08-01T10:04:44.972Z,76.61
2022-08-01T10:05:50.065Z,73.42
2022-08-01T10:06:44.998Z,74.51
2022-08-01T10:07:44.989Z,74.18
2022-08-01T10:08:44.973Z,74.98
2022-08-01T10:09:44.942Z,72.25
2022-08-01T10:10:46.384Z,72.95
2022-08-01T10:11:45.310Z,74.30
2022-08-01T10:12:45.639Z,73.50
2022-08-01T10:13:44.908Z,71.58
2022-08-01T10:14:46.364Z,70.85
2022-08-01T10:15:44.900Z,70.72
2022-08-01T10:16:44.921Z,69.16
2022-08-01T10:17:51.226Z,69.36
2022-08-01T10:18:45.876Z,66.58
2022-08-01T10:19:44.871Z,67.57
2022-08-01T10:20:44.861Z,67.05
2022-08-01T10:21:56.812Z,65.56
2022-08-01T10:22:45.849Z,67.50
2022-08-01T10:23:44.835Z,69.46
2022-08-01T10:24:44.837Z,66.94
2022-08-01T10:25:46.963Z,66.42
2022-08-01T10:26:44.851Z,66.28
2022-08-01T10:27:44.811Z,64.40
2022-08-01T10:28:44.807Z,65.69
2022-08-01T10:29:46.674Z,64.70
2022-08-01T10:30:45.843Z,64.70
2022-08-01T10:31:44.821Z,63.39
2022-08-01T10:32:50.653Z,64.70
2022-08-01T10:33:51.750Z,67.14
2022-08-01T10:34:45.756Z,69.32
2022-08-01T10:35:47.889Z,69.99
2022-08-01T10:36:45.777Z,66.44
2022-08-01T10:37:52.672Z,68.79
2022-08-01T10:38:45.738Z,67.90
2022-08-01T10:39:44.824Z,66.71
2022-08-01T10:40:44.720Z,67.33
2022-08-01T10:41:44.730Z,66.74
2022-08-01T10:42:44.699Z,68.70
2022-08-01T10:43:46.842Z,67.04
2022-08-01T10:44:44.701Z,66.05
2022-08-01T10:45:44.677Z,66.14
2022-08-01T10:46:45.797Z,66.35
2022-08-01T10:47:50.705Z,66.54
2022-08-01T10:48:45.647Z,67.83
2022-08-01T10:49:45.674Z,67.80
2022-08-01T10:50:44.642Z,67.93
2022-08-01T10:51:52.759Z,69.76
2022-08-01T10:52:45.620Z,69.82
2022-08-01T10:53:44.619Z,69.20
2022-08-01T10:54:52.570Z,66.84
2022-08-01T10:55:45.600Z,66.38
2022-08-01T10:56:44.632Z,62.87
2022-08-01T10:57:44.594Z,64.95
2022-08-01T10:58:45.583Z,65.68
2022-08-01T10:59:49.811Z,65.98
2022-08-01T11:00:45.572Z,66.35
2022-08-01T11:01:44.884Z,66.11
2022-08-01T11:02:45.623Z,64.26
2022-08-01T11:04:01.056Z,64.92
2022-08-01T11:04:46.551Z,62.51
2022-08-01T11:05:44.544Z,62.21
2022-08-01T11:06:45.816Z,61.52
2022-08-01T11:07:44.526Z,61.99
2022-08-01T11:08:44.584Z,62.21
2022-08-01T11:09:49.521Z,62.45
2022-08-01T11:10:46.501Z,62.27
2022-08-01T11:11:44.513Z,63.27
2022-08-01T11:12:44.493Z,63.37
2022-08-01T11:13:44.469Z,62.84
2022-08-01T11:14:55.657Z,63.63
2022-08-01T11:15:50.370Z,64.03
2022-08-01T11:16:44.490Z,64.65
2022-08-01T11:17:44.444Z,63.73
2022-08-01T11:18:44.493Z,64.29
2022-08-01T11:19:44.432Z,62.94
2022-08-01T11:20:45.437Z,62.18
2022-08-01T11:21:59.125Z,60.55
2022-08-01T11:22:45.415Z,61.34
2022-08-01T11:23:44.408Z,62.01
2022-08-01T11:24:44.394Z,62.04
2022-08-01T11:26:03.493Z,63.46
2022-08-01T11:26:45.408Z,62.86
2022-08-01T11:27:44.383Z,62.46
2022-08-01T11:29:10.869Z,61.64
2022-08-01T11:29:46.363Z,63.20
2022-08-01T11:30:44.368Z,60.46
2022-08-01T11:31:44.357Z,61.75
2022-08-01T11:33:06.621Z,59.83
2022-08-01T11:33:47.036Z,59.83
2022-08-01T11:34:44.328Z,60.16
2022-08-01T11:35:44.318Z,61.35
2022-08-01T11:37:00.059Z,62.87
2022-08-01T11:37:46.339Z,63.20
2022-08-01T11:38:44.548Z,62.93
2022-08-01T11:39:44.283Z,63.23
2022-08-01T11:40:44.272Z,63.13
2022-08-01T11:41:45.134Z,64.12
2022-08-01T11:42:44.287Z,64.22
2022-08-01T11:43:44.276Z,64.25
2022-08-01T11:44:44.256Z,63.16
2022-08-01T11:45:44.237Z,65.08
2022-08-01T11:46:44.236Z,62.96
2022-08-01T11:47:44.247Z,64.09
2022-08-01T11:48:44.218Z,63.98
2022-08-01T11:49:44.221Z,63.49
2022-08-01T11:50:44.203Z,64.78
2022-08-01T11:51:44.194Z,64.28
2022-08-01T11:52:44.216Z,64.36
2022-08-01T11:53:44.178Z,63.76
2022-08-01T11:54:44.180Z,63.03
2022-08-01T11:55:44.168Z,62.97
2022-08-01T11:56:46.516Z,63.70
2022-08-01T11:57:44.174Z,60.72
2022-08-01T11:58:44.145Z,62.08
2022-08-01T11:59:53.109Z,60.94
2022-08-01T12:00:47.143Z,58.91
2022-08-01T12:01:44.123Z,59.34
2022-08-01T12:02:45.317Z,59.51
2022-08-01T12:03:45.896Z,59.21
2022-08-01T12:04:44.103Z,59.51
2022-08-01T12:05:44.099Z,59.36
2022-08-01T12:06:44.089Z,59.92
2022-08-01T12:07:44.126Z,61.34
2022-08-01T12:08:44.071Z,61.94
2022-08-01T12:09:44.062Z,61.61
2022-08-01T12:10:49.578Z,62.30
2022-08-01T12:11:45.045Z,61.21
2022-08-01T12:12:44.061Z,62.04
2022-08-01T12:13:44.035Z,62.10
2022-08-01T12:14:44.018Z,61.98
2022-08-01T12:15:44.012Z,61.12
2022-08-01T12:16:44.038Z,60.23
2022-08-01T12:17:47.095Z,59.63
2022-08-01T12:18:45.039Z,59.80
2022-08-01T12:19:43.983Z,58.64
2022-08-01T12:20:56.281Z,60.46
2022-08-01T12:21:45.974Z,59.86
2022-08-01T12:22:43.986Z,60.40
2022-08-01T12:23:44.419Z,60.60
2022-08-01T12:24:43.947Z,59.45
2022-08-01T12:25:43.944Z,59.52
2022-08-01T12:26:43.949Z,58.01
2022-08-01T12:27:43.963Z,57.81
2022-08-01T12:28:43.926Z,57.24
2022-08-01T12:29:43.921Z,58.20
2022-08-01T12:30:43.916Z,57.41
2022-08-01T12:31:43.901Z,58.20
2022-08-01T12:32:43.916Z,57.21
2022-08-01T12:33:43.880Z,55.51
2022-08-01T12:34:43.879Z,55.43
2022-08-01T12:35:43.864Z,57.14
2022-08-01T12:36:43.924Z,55.91
2022-08-01T12:37:43.889Z,57.07
2022-08-01T12:38:43.875Z,56.68
2022-08-01T12:39:43.855Z,55.91
2022-08-01T12:40:45.487Z,57.59
2022-08-01T12:41:44.831Z,56.30
2022-08-01T12:42:43.850Z,56.93
2022-08-01T12:43:43.815Z,57.92
2022-08-01T12:44:43.804Z,57.55
2022-08-01T12:45:57.181Z,57.15
2022-08-01T12:46:44.780Z,58.27
2022-08-01T12:47:44.817Z,58.70
2022-08-01T12:48:43.777Z,59.74
2022-08-01T12:49:43.768Z,59.04
2022-08-01T12:50:43.761Z,57.82
2022-08-01T12:51:43.755Z,57.62
2022-08-01T12:52:44.778Z,56.53
2022-08-01T12:53:43.748Z,56.93
2022-08-01T12:54:43.730Z,57.75